createdAt,value
2023-05-10T00:00:45.810Z,47.81
2023-05-10T00:03:12.408Z,47.66
2023-05-10T00:05:39.088Z,47.73
2023-05-10T00:08:05.808Z,47.93
2023-05-10T00:10:32.393Z,47.38
2023-05-10T00:12:59.229Z,47.76
2023-05-10T00:15:25.782Z,47.49
2023-05-10T00:17:52.410Z,47.75
2023-05-10T00:20:19.247Z,47.56
2023-05-10T00:22:45.981Z,47.48
2023-05-10T00:25:12.539Z,47.54
2023-05-10T00:27:39.228Z,47.78
2023-05-10T00:30:07.225Z,47.54
2023-05-10T00:32:33.876Z,47.70
2023-05-10T00:35:00.501Z,47.58
2023-05-10T00:37:27.126Z,47.24
2023-05-10T00:39:54.190Z,48.05
2023-05-10T00:42:20.811Z,47.49
2023-05-10T00:44:47.735Z,47.67
2023-05-10T00:47:14.512Z,47.54
2023-05-10T00:49:41.826Z,47.54
2023-05-10T00:52:09.346Z,47.60
2023-05-10T00:54:35.977Z,47.48
2023-05-10T00:57:02.598Z,47.80
2023-05-10T00:59:29.970Z,47.58
2023-05-10T01:01:56.609Z,47.63
2023-05-10T01:04:26.558Z,47.75
2023-05-10T01:06:54.629Z,47.58
2023-05-10T01:09:27.318Z,47.40
2023-05-10T01:11:54.726Z,47.74
2023-05-10T01:14:21.464Z,47.27
2023-05-10T01:16:50.326Z,47.77
2023-05-10T01:19:25.944Z,47.61
2023-05-10T01:22:30.817Z,47.70
2023-05-10T01:25:32.784Z,47.98
2023-05-10T01:28:17.858Z,47.73
2023-05-10T01:30:53.660Z,48.12
2023-05-10T01:33:30.709Z,48.34
2023-05-10T01:36:27.101Z,48.01
2023-05-10T01:38:53.587Z,48.25
2023-05-10T01:41:49.648Z,48.01
2023-05-10T01:44:22.042Z,47.74
2023-05-10T01:47:05.408Z,48.07
2023-05-10T01:49:35.665Z,48.01
2023-05-10T01:52:09.603Z,48.43
2023-05-10T01:54:39.469Z,48.04
2023-05-10T01:57:08.694Z,47.97
2023-05-10T01:59:37.997Z,47.96
2023-05-10T02:02:06.504Z,47.77
2023-05-10T02:04:36.197Z,47.76
2023-05-10T02:07:03.287Z,47.26
2023-05-10T02:09:33.051Z,47.89
2023-05-10T02:12:03.583Z,47.97
2023-05-10T02:14:33.128Z,47.58
2023-05-10T02:17:01.273Z,47.70
2023-05-10T02:19:29.898Z,48.00
2023-05-10T02:21:57.277Z,47.49
2023-05-10T02:24:26.109Z,47.71
2023-05-10T02:26:56.694Z,47.97
2023-05-10T02:29:25.842Z,47.77
2023-05-10T02:31:53.671Z,48.01
2023-05-10T02:34:22.568Z,48.17
2023-05-10T02:36:51.665Z,47.97
2023-05-10T02:39:20.306Z,47.54
2023-05-10T02:41:49.151Z,47.96
2023-05-10T02:44:18.807Z,48.29
2023-05-10T02:46:46.180Z,47.96
2023-05-10T02:49:12.974Z,47.92
2023-05-10T02:51:45.876Z,48.31
2023-05-10T02:54:17.618Z,47.96
2023-05-10T02:56:51.452Z,47.70
2023-05-10T02:59:18.172Z,47.70
2023-05-10T03:01:44.827Z,47.73
2023-05-10T03:04:11.745Z,47.70
2023-05-10T03:06:38.705Z,47.39
2023-05-10T03:09:05.555Z,47.45
2023-05-10T03:11:48.350Z,47.64
2023-05-10T03:14:39.786Z,47.66
2023-05-10T03:17:31.044Z,48.36
2023-05-10T03:20:04.250Z,48.13
2023-05-10T03:22:39.341Z,47.68
2023-05-10T03:25:07.906Z,47.82
2023-05-10T03:27:36.426Z,47.64
2023-05-10T03:30:04.087Z,47.58
2023-05-10T03:32:32.924Z,47.48
2023-05-10T03:34:59.561Z,47.40
2023-05-10T03:37:26.116Z,47.93
2023-05-10T03:39:52.712Z,47.79
2023-05-10T03:42:19.264Z,47.68
2023-05-10T03:44:45.785Z,48.00
2023-05-10T03:47:12.336Z,47.91
2023-05-10T03:49:38.900Z,47.84
2023-05-10T03:52:06.296Z,47.88
2023-05-10T03:54:33.268Z,47.69
2023-05-10T03:57:01.307Z,47.69
2023-05-10T03:59:27.992Z,47.65
2023-05-10T04:01:54.667Z,47.74
2023-05-10T04:04:22.437Z,47.82
2023-05-10T04:06:48.982Z,47.51
2023-05-10T04:09:16.124Z,47.89
2023-05-10T04:11:42.884Z,47.72
2023-05-10T04:14:09.699Z,48.11
2023-05-10T04:16:36.375Z,47.91
2023-05-10T04:19:05.796Z,47.80
2023-05-10T04:21:32.376Z,48.04
2023-05-10T04:23:58.917Z,48.02
2023-05-10T04:26:26.535Z,47.75
2023-05-10T04:28:53.145Z,47.95
2023-05-10T04:31:19.865Z,47.55
2023-05-10T04:33:46.545Z,47.55
2023-05-10T04:36:13.158Z,47.75
2023-05-10T04:38:39.699Z,47.71
2023-05-10T04:41:11.093Z,47.56
2023-05-10T04:43:38.304Z,47.48
2023-05-10T04:46:06.141Z,47.50
2023-05-10T04:48:32.807Z,47.28
2023-05-10T04:50:59.452Z,47.62
2023-05-10T04:53:26.088Z,47.35
2023-05-10T04:55:52.763Z,47.57
2023-05-10T04:58:19.384Z,47.40
2023-05-10T05:00:46.023Z,47.67
2023-05-10T05:03:12.710Z,47.07
2023-05-10T05:05:39.318Z,46.59
2023-05-10T05:08:05.942Z,47.50
2023-05-10T05:10:32.527Z,47.18
2023-05-10T05:12:59.194Z,48.15
2023-05-10T05:15:25.817Z,48.16
2023-05-10T05:17:52.825Z,47.76
2023-05-10T05:20:20.075Z,48.17
2023-05-10T05:22:46.779Z,48.03
2023-05-10T05:25:13.696Z,48.21
2023-05-10T05:27:40.355Z,48.09
2023-05-10T05:30:08.895Z,48.24
2023-05-10T05:32:35.678Z,47.66
2023-05-10T05:35:02.307Z,47.78
2023-05-10T05:37:28.914Z,47.56
2023-05-10T05:39:56.052Z,47.22
2023-05-10T05:42:22.704Z,47.33
2023-05-10T05:44:49.343Z,47.17
2023-05-10T05:47:15.999Z,46.88
2023-05-10T05:49:42.565Z,46.91
2023-05-10T05:52:09.137Z,46.59
2023-05-10T05:54:35.774Z,45.53
2023-05-10T05:57:02.329Z,44.30
2023-05-10T05:59:29.011Z,44.51
2023-05-10T06:01:55.780Z,44.58
2023-05-10T06:04:22.447Z,44.45
2023-05-10T06:06:49.274Z,43.84
2023-05-10T06:09:17.074Z,44.08
2023-05-10T06:11:43.876Z,43.70
2023-05-10T06:14:10.576Z,44.02
2023-05-10T06:16:37.227Z,44.06
2023-05-10T06:19:03.851Z,44.36
2023-05-10T06:21:31.056Z,44.11
2023-05-10T06:23:57.664Z,44.38
2023-05-10T06:26:24.516Z,44.65
2023-05-10T06:28:51.118Z,44.24
2023-05-10T06:31:17.949Z,44.17
2023-05-10T06:33:44.569Z,43.86
2023-05-10T06:36:11.157Z,43.95
2023-05-10T06:38:38.220Z,43.81
2023-05-10T06:41:04.842Z,43.53
2023-05-10T06:43:31.397Z,44.37
2023-05-10T06:45:58.413Z,44.33
2023-05-10T06:48:25.001Z,43.69
2023-05-10T06:50:51.539Z,43.25
2023-05-10T06:53:18.152Z,43.67
2023-05-10T06:55:44.838Z,43.17
2023-05-10T06:58:11.493Z,43.24
2023-05-10T07:00:41.622Z,43.29
2023-05-10T07:03:08.408Z,42.82
2023-05-10T07:05:35.442Z,42.93
2023-05-10T07:08:02.611Z,42.83
2023-05-10T07:10:29.355Z,42.74
2023-05-10T07:12:56.056Z,42.27
2023-05-10T07:15:22.933Z,42.78
2023-05-10T07:17:49.674Z,42.72
2023-05-10T07:20:16.610Z,42.73
2023-05-10T07:22:43.280Z,43.75
2023-05-10T07:25:10.111Z,43.42
2023-05-10T07:27:36.882Z,43.39
2023-05-10T07:30:03.616Z,43.15
2023-05-10T07:32:30.335Z,43.33
2023-05-10T07:34:56.984Z,43.89
2023-05-10T07:37:23.621Z,43.76
2023-05-10T07:39:50.206Z,44.84
2023-05-10T07:42:16.835Z,44.59
2023-05-10T07:44:44.272Z,44.74
2023-05-10T07:47:10.838Z,44.90
2023-05-10T07:49:37.432Z,44.37
2023-05-10T07:52:04.502Z,45.08
2023-05-10T07:54:31.136Z,44.21
2023-05-10T07:56:57.663Z,45.41
2023-05-10T07:59:24.301Z,44.67
2023-05-10T08:01:50.893Z,44.60
2023-05-10T08:04:17.558Z,44.54
2023-05-10T08:06:44.284Z,44.45
2023-05-10T08:09:11.951Z,44.85
2023-05-10T08:11:38.591Z,45.09
2023-05-10T08:14:05.386Z,44.87
2023-05-10T08:16:33.301Z,44.93
2023-05-10T08:19:00.041Z,44.93
2023-05-10T08:21:27.244Z,45.35
2023-05-10T08:23:53.886Z,44.68
2023-05-10T08:26:22.409Z,44.67
2023-05-10T08:28:49.026Z,44.42
2023-05-10T08:31:16.542Z,44.81
2023-05-10T08:33:44.757Z,45.03
2023-05-10T08:36:11.556Z,45.04
2023-05-10T08:38:38.882Z,44.97
2023-05-10T08:41:06.343Z,44.70
2023-05-10T08:43:33.223Z,44.79
2023-05-10T08:46:04.702Z,45.21
2023-05-10T08:48:32.182Z,45.28
2023-05-10T08:51:01.698Z,45.00
2023-05-10T08:53:31.457Z,44.99
2023-05-10T08:55:58.115Z,45.54
2023-05-10T08:58:24.795Z,44.84
2023-05-10T09:00:54.073Z,45.10
2023-05-10T09:03:20.870Z,44.80
2023-05-10T09:05:47.929Z,45.22
2023-05-10T09:08:17.190Z,44.60
2023-05-10T09:10:45.656Z,45.09
2023-05-10T09:13:12.893Z,44.86
2023-05-10T09:15:39.824Z,45.07
2023-05-10T09:18:06.519Z,45.09
2023-05-10T09:20:33.213Z,45.25
2023-05-10T09:22:59.743Z,45.03
2023-05-10T09:25:26.348Z,44.40
2023-05-10T09:27:53.565Z,45.02
2023-05-10T09:30:27.895Z,44.59
2023-05-10T09:32:55.749Z,45.17
2023-05-10T09:35:27.077Z,44.84
2023-05-10T09:37:57.467Z,45.24
2023-05-10T09:40:26.007Z,45.53
2023-05-10T09:42:56.431Z,45.05
2023-05-10T09:45:24.745Z,46.24
2023-05-10T09:47:51.529Z,45.30
2023-05-10T09:50:18.299Z,46.70
2023-05-10T09:52:54.424Z,46.59
2023-05-10T09:55:22.771Z,46.55
2023-05-10T09:57:50.438Z,46.74
2023-05-10T10:00:21.007Z,47.45
2023-05-10T10:02:55.264Z,47.72
2023-05-10T10:05:22.020Z,48.35
2023-05-10T10:07:50.257Z,48.99
2023-05-10T10:10:17.274Z,47.78
2023-05-10T10:12:44.041Z,47.58
2023-05-10T10:15:11.468Z,47.45
2023-05-10T10:17:39.518Z,46.76
2023-05-10T10:20:06.835Z,47.85
2023-05-10T10:22:33.505Z,47.57
2023-05-10T10:25:00.513Z,47.26
2023-05-10T10:27:53.559Z,47.90
2023-05-10T10:30:26.196Z,47.34
2023-05-10T10:33:29.125Z,46.80
2023-05-10T10:35:59.102Z,46.78
2023-05-10T10:38:26.124Z,46.84
2023-05-10T10:41:27.804Z,46.69
2023-05-10T10:44:34.909Z,46.60
2023-05-10T10:47:09.406Z,47.22
2023-05-10T10:49:45.008Z,46.99
2023-05-10T10:52:18.772Z,45.91
2023-05-10T10:54:57.971Z,46.22
2023-05-10T10:57:27.430Z,46.45
2023-05-10T11:00:19.186Z,46.09
2023-05-10T11:02:47.273Z,46.24
2023-05-10T11:05:37.348Z,45.49
2023-05-10T11:08:26.705Z,46.58
2023-05-10T11:10:53.336Z,46.13
2023-05-10T11:13:31.412Z,46.09
2023-05-10T11:15:58.787Z,46.06
2023-05-10T11:18:29.597Z,46.09
2023-05-10T11:20:57.687Z,45.79
2023-05-10T11:23:24.789Z,46.00
2023-05-10T11:25:51.328Z,45.72
2023-05-10T11:28:20.246Z,45.68
2023-05-10T11:30:47.143Z,46.05
2023-05-10T11:33:18.352Z,45.73
2023-05-10T11:35:45.082Z,46.04
2023-05-10T11:38:12.880Z,45.47
2023-05-10T11:40:40.783Z,46.07
2023-05-10T11:43:10.091Z,45.42
2023-05-10T11:45:36.771Z,45.85
2023-05-10T11:48:03.903Z,45.68
2023-05-10T11:50:30.691Z,45.57
2023-05-10T11:52:57.946Z,46.04
2023-05-10T11:55:27.338Z,46.00
2023-05-10T11:58:01.560Z,45.89
2023-05-10T12:00:28.557Z,46.09
2023-05-10T12:02:55.319Z,45.54
2023-05-10T12:05:22.595Z,45.50
2023-05-10T12:07:49.105Z,45.92
2023-05-10T12:10:16.470Z,45.67
2023-05-10T12:12:50.665Z,45.77
2023-05-10T12:15:25.726Z,45.84
2023-05-10T12:17:52.483Z,45.85
2023-05-10T12:20:28.688Z,46.13
2023-05-10T12:23:00.187Z,45.67
2023-05-10T12:25:31.728Z,45.76
2023-05-10T12:28:01.834Z,46.24
2023-05-10T12:30:33.714Z,45.76
2023-05-10T12:33:12.126Z,45.68
2023-05-10T12:35:49.236Z,45.67
2023-05-10T12:38:39.392Z,45.89
2023-05-10T12:41:11.022Z,46.04
2023-05-10T12:43:38.994Z,45.77
2023-05-10T12:46:09.925Z,46.08
2023-05-10T12:48:38.218Z,46.17
2023-05-10T12:51:05.826Z,45.94
2023-05-10T12:53:32.489Z,45.91
2023-05-10T12:55:59.104Z,45.43
2023-05-10T12:58:34.964Z,45.56
2023-05-10T13:01:02.846Z,45.47
2023-05-10T13:03:29.489Z,45.92
2023-05-10T13:05:56.058Z,45.99
2023-05-10T13:08:22.698Z,45.73
2023-05-10T13:10:49.791Z,46.10
2023-05-10T13:13:16.502Z,45.75
2023-05-10T13:15:43.129Z,45.84
2023-05-10T13:18:09.746Z,45.41
2023-05-10T13:20:36.645Z,45.71
2023-05-10T13:23:03.669Z,45.51
2023-05-10T13:25:30.930Z,45.71
2023-05-10T13:27:57.501Z,45.61
2023-05-10T13:30:24.951Z,45.80
2023-05-10T13:32:51.785Z,45.76
2023-05-10T13:35:18.427Z,45.57
2023-05-10T13:37:45.020Z,45.80
2023-05-10T13:40:11.825Z,45.66
2023-05-10T13:42:38.563Z,46.18
2023-05-10T13:45:05.727Z,46.05
2023-05-10T13:47:32.290Z,45.34
2023-05-10T13:49:59.444Z,45.84
2023-05-10T13:52:27.568Z,45.86
2023-05-10T13:54:56.182Z,46.08
2023-05-10T13:57:24.075Z,45.94
2023-05-10T13:59:51.283Z,46.28
2023-05-10T14:02:17.961Z,46.56
2023-05-10T14:04:44.567Z,46.34
2023-05-10T14:07:11.163Z,46.42
2023-05-10T14:09:37.743Z,46.34
2023-05-10T14:12:04.619Z,46.09
2023-05-10T14:14:31.300Z,46.60
2023-05-10T14:16:57.873Z,46.48
2023-05-10T14:19:24.497Z,46.23
2023-05-10T14:21:52.937Z,46.05
2023-05-10T14:24:19.530Z,46.37
2023-05-10T14:26:46.143Z,46.56
2023-05-10T14:29:12.850Z,46.62
2023-05-10T14:31:39.648Z,46.29
2023-05-10T14:34:06.707Z,46.26
2023-05-10T14:36:33.460Z,46.17
2023-05-10T14:39:00.127Z,46.39
2023-05-10T14:41:26.663Z,46.68
2023-05-10T14:43:53.591Z,46.38
2023-05-10T14:46:20.708Z,46.43
2023-05-10T14:48:47.386Z,47.05
2023-05-10T14:51:14.382Z,46.47
2023-05-10T14:53:41.078Z,46.68
2023-05-10T14:56:08.044Z,46.77
2023-05-10T14:58:34.710Z,46.72
2023-05-10T15:01:01.774Z,47.55
2023-05-10T15:03:29.155Z,46.41
2023-05-10T15:05:58.552Z,46.56
2023-05-10T15:08:25.671Z,46.46
2023-05-10T15:10:52.745Z,46.39
2023-05-10T15:13:19.305Z,46.29
2023-05-10T15:15:45.913Z,46.31
2023-05-10T15:18:12.709Z,46.15
2023-05-10T15:20:39.480Z,46.65
2023-05-10T15:23:06.029Z,46.88
2023-05-10T15:25:35.209Z,46.06
2023-05-10T15:28:03.631Z,46.40
2023-05-10T15:30:30.382Z,46.18
2023-05-10T15:32:57.496Z,46.03
2023-05-10T15:35:24.273Z,46.59
2023-05-10T15:49:27.953Z,46.64
2023-05-10T15:53:37.577Z,46.27
2023-05-10T15:56:04.667Z,46.49
2023-05-10T15:58:31.763Z,46.08
2023-05-10T16:00:58.622Z,45.75
2023-05-10T16:03:25.404Z,46.28
2023-05-10T16:05:52.188Z,46.04
2023-05-10T16:08:18.913Z,46.27
2023-05-10T16:10:46.011Z,46.27
2023-05-10T16:13:15.146Z,45.84
2023-05-10T16:15:42.017Z,46.30
2023-05-10T16:18:09.495Z,46.12
2023-05-10T16:20:36.825Z,46.29
2023-05-10T16:23:05.852Z,46.31
2023-05-10T16:25:33.199Z,46.23
2023-05-10T16:28:00.706Z,46.05
2023-05-10T16:30:29.628Z,46.07
2023-05-10T16:33:01.076Z,45.99
2023-05-10T16:35:29.935Z,46.48
2023-05-10T16:37:57.440Z,46.37
2023-05-10T16:40:24.309Z,46.17
2023-05-10T16:42:51.080Z,46.43
2023-05-10T16:45:18.176Z,46.34
2023-05-10T16:47:45.451Z,46.29
2023-05-10T16:50:12.542Z,46.11
2023-05-10T16:52:39.653Z,46.54
2023-05-10T16:55:06.856Z,46.68
2023-05-10T16:57:33.649Z,46.50
2023-05-10T17:00:00.688Z,46.46
2023-05-10T17:02:27.944Z,46.59
2023-05-10T17:04:56.168Z,46.54
2023-05-10T17:07:25.560Z,46.75
2023-05-10T17:09:53.219Z,46.56
2023-05-10T17:12:19.993Z,46.62
2023-05-10T17:14:47.439Z,46.55
2023-05-10T17:17:14.320Z,46.79
2023-05-10T17:19:44.941Z,46.49
2023-05-10T17:22:13.540Z,46.27
2023-05-10T17:24:40.445Z,46.60
2023-05-10T17:27:07.160Z,46.59
2023-05-10T17:29:33.981Z,46.80
2023-05-10T17:32:00.869Z,46.42
2023-05-10T17:34:27.806Z,46.16
2023-05-10T17:36:54.551Z,46.61
2023-05-10T17:39:21.429Z,46.10
2023-05-10T17:41:48.251Z,46.44
2023-05-10T17:44:15.141Z,46.54
2023-05-10T17:46:41.933Z,46.29
2023-05-10T17:49:08.920Z,46.37
2023-05-10T17:51:35.681Z,46.15
2023-05-10T17:54:02.532Z,46.37
2023-05-10T17:56:29.785Z,46.62
2023-05-10T17:58:56.627Z,46.18
2023-05-10T18:01:23.413Z,46.23
2023-05-10T18:03:51.945Z,46.31
2023-05-10T18:06:18.744Z,46.05
2023-05-10T18:08:45.630Z,46.17
2023-05-10T18:11:12.386Z,46.43
2023-05-10T18:13:39.226Z,46.13
2023-05-10T18:16:08.759Z,46.04
2023-05-10T18:18:35.814Z,45.79
2023-05-10T18:21:03.781Z,46.20
2023-05-10T18:23:30.745Z,46.22
2023-05-10T18:25:58.121Z,46.55
2023-05-10T18:28:24.918Z,46.35
2023-05-10T18:30:51.921Z,46.16
2023-05-10T18:33:19.052Z,45.98
2023-05-10T18:35:46.610Z,46.43
2023-05-10T18:38:14.049Z,46.25
2023-05-10T18:40:41.750Z,46.23
2023-05-10T18:43:09.019Z,46.13
2023-05-10T18:45:35.788Z,46.29
2023-05-10T18:48:03.070Z,46.17
2023-05-10T18:50:29.971Z,46.23
2023-05-10T18:52:56.960Z,46.32
2023-05-10T18:55:26.899Z,46.44
2023-05-10T18:57:53.885Z,46.36
2023-05-10T19:00:20.789Z,46.25
2023-05-10T19:02:47.905Z,46.03
2023-05-10T19:05:15.775Z,46.31
2023-05-10T19:07:43.990Z,46.19
2023-05-10T19:10:13.045Z,45.79
2023-05-10T19:12:41.747Z,46.03
2023-05-10T19:15:09.174Z,46.01
2023-05-10T19:17:37.055Z,46.15
2023-05-10T19:20:05.925Z,46.41
2023-05-10T19:22:45.380Z,46.22
2023-05-10T19:25:21.012Z,46.25
2023-05-10T19:27:47.949Z,46.00
2023-05-10T19:30:14.854Z,46.08
2023-05-10T19:32:44.289Z,46.15
2023-05-10T19:35:12.897Z,46.39
2023-05-10T19:37:39.725Z,46.97
2023-05-10T19:40:07.185Z,46.85
2023-05-10T19:42:33.957Z,47.14
2023-05-10T19:45:01.388Z,46.98
2023-05-10T19:47:28.320Z,46.89
2023-05-10T19:49:55.171Z,47.27
2023-05-10T19:52:22.863Z,47.07
2023-05-10T19:54:49.627Z,47.13
2023-05-10T19:57:16.627Z,47.42
2023-05-10T19:59:43.436Z,47.49
2023-05-10T20:02:28.683Z,46.80
2023-05-10T20:04:55.755Z,47.02
2023-05-10T20:07:22.517Z,47.11
2023-05-10T20:09:49.676Z,46.91
2023-05-10T20:12:16.518Z,46.57
2023-05-10T20:14:43.281Z,47.01
2023-05-10T20:17:10.097Z,47.35
2023-05-10T20:19:37.138Z,46.99
2023-05-10T20:22:05.477Z,46.54
2023-05-10T20:24:32.282Z,46.83
2023-05-10T20:26:59.032Z,46.49
2023-05-10T20:29:26.256Z,46.95
2023-05-10T20:31:53.148Z,46.64
2023-05-10T20:34:20.063Z,46.77
2023-05-10T20:36:46.878Z,46.33
2023-05-10T20:39:14.316Z,46.46
2023-05-10T20:41:41.116Z,46.71
2023-05-10T20:44:08.133Z,46.56
2023-05-10T20:46:35.179Z,46.71
2023-05-10T20:49:02.630Z,46.59
2023-05-10T20:51:30.513Z,46.24
2023-05-10T20:53:57.971Z,46.51
2023-05-10T20:56:24.765Z,46.92
2023-05-10T20:58:51.488Z,46.62
2023-05-10T21:01:18.314Z,46.74
2023-05-10T21:03:45.237Z,46.71
2023-05-10T21:06:11.983Z,46.84
2023-05-10T21:08:38.727Z,46.92
2023-05-10T21:11:05.832Z,46.61
2023-05-10T21:13:33.288Z,46.56
2023-05-10T21:16:00.534Z,46.44
2023-05-10T21:18:27.486Z,46.49
2023-05-10T21:20:54.427Z,46.90
2023-05-10T21:23:21.243Z,46.69
2023-05-10T21:25:48.000Z,46.64
2023-05-10T21:28:14.865Z,46.81
2023-05-10T21:30:41.620Z,46.95
2023-05-10T21:33:08.503Z,47.34
2023-05-10T21:35:35.342Z,46.88
2023-05-10T21:38:02.282Z,47.13
2023-05-10T21:40:29.088Z,46.67
2023-05-10T21:42:55.934Z,47.19
2023-05-10T21:45:22.844Z,46.83
2023-05-10T21:47:49.927Z,46.78
2023-05-10T21:50:17.024Z,46.89
2023-05-10T21:52:44.130Z,46.96
2023-05-10T21:55:10.882Z,46.56
2023-05-10T21:57:37.668Z,46.88
2023-05-10T22:00:05.038Z,46.45
2023-05-10T22:02:32.003Z,46.73
2023-05-10T22:04:58.835Z,46.91
2023-05-10T22:07:25.672Z,47.13
2023-05-10T22:09:52.463Z,47.20
2023-05-10T22:12:19.208Z,47.02
2023-05-10T22:14:47.458Z,46.91
2023-05-10T22:17:15.525Z,47.24
2023-05-10T22:19:42.511Z,46.87
2023-05-10T22:22:09.499Z,47.00
2023-05-10T22:24:37.089Z,47.17
2023-05-10T22:27:04.906Z,47.07
2023-05-10T22:29:31.829Z,47.21
2023-05-10T22:31:58.998Z,46.94
2023-05-10T22:34:25.814Z,47.05
2023-05-10T22:36:52.589Z,47.35
2023-05-10T22:39:19.367Z,47.24
2023-05-10T22:41:46.884Z,46.88
2023-05-10T22:44:13.611Z,47.32
2023-05-10T22:46:40.515Z,46.77
2023-05-10T22:49:07.538Z,47.07
2023-05-10T22:51:34.897Z,47.40
2023-05-10T22:54:01.646Z,46.99
2023-05-10T22:56:28.550Z,46.78
2023-05-10T22:58:57.166Z,47.06
2023-05-10T23:01:24.056Z,46.77
2023-05-10T23:03:51.184Z,46.81
2023-05-10T23:06:18.596Z,46.77
2023-05-10T23:08:45.430Z,47.10
2023-05-10T23:11:12.778Z,47.47
2023-05-10T23:13:39.549Z,47.54
2023-05-10T23:16:07.147Z,47.22
2023-05-10T23:18:34.029Z,47.08
2023-05-10T23:21:01.132Z,47.00
2023-05-10T23:23:27.988Z,47.33
2023-05-10T23:25:54.972Z,47.14
2023-05-10T23:28:21.877Z,47.01
2023-05-10T23:30:55.633Z,47.32
2023-05-10T23:33:23.297Z,47.17
2023-05-10T23:35:50.563Z,46.95
2023-05-10T23:38:17.527Z,46.62
2023-05-10T23:40:48.552Z,46.91
2023-05-10T23:43:16.402Z,47.37
2023-05-10T23:45:43.821Z,47.37
2023-05-10T23:48:11.137Z,46.57
2023-05-10T23:50:37.842Z,47.07
2023-05-10T23:53:04.703Z,47.14
2023-05-10T23:55:31.539Z,47.70
2023-05-10T23:57:58.401Z,47.37
